Henderson, NC

10:20 PM EST on December 04, 2016 (GMT -0500)
Gillburg | | Change Station

Elev 434 ft 36.26 °N, 78.37 °W | Updated 11 seconds ago

Light Rain
Light Rain
40.3 °F
Feels Like 40 °F
N
0.0
Wind Variable Wind from SSW
Gusts 0.0 mph

Today
High -- | Low -- °F
--% Chance of Precip.
Yesterday
High -- | Low -- °F
Precip. -- in
Pressure 30.11 in
Visibility 4.0 miles
Clouds Mostly Cloudy 400 ft
Mostly Cloudy 1200 ft
Overcast 3600 ft
Windchill 40 °F
Dew Point 40 °F
Humidity 97%
Rainfall 0.13 in
Snow Depth Not available.
7:09 AM 4:58 PM
Waxing Crescent, 27% visible
METAR KHNZ 050305Z AUTO 00000KT 4SM -RA BKN004 BKN012 OVC036 03/03 A3011 RMK AO2 T00330026
Pressure 30.11 in
Visibility 4.0 miles
Clouds Mostly Cloudy 400 ft
Mostly Cloudy 1200 ft
Overcast 3600 ft
Windchill 40 °F
Dew Point 40 °F
Humidity 97%
Rainfall 0.13 in
Snow Depth Not available.
7:09 AM 4:58 PM
Waxing Crescent, 27% visible
METAR KHNZ 050305Z AUTO 00000KT 4SM -RA BKN004 BKN012 OVC036 03/03 A3011 RMK AO2 T00330026

10-Day Weather Forecast

Almanac

Astronomy

Dec. 04, 2016 Rise Set
Actual Time
Civil Twilight
Nautical Twilight
Astronomical Twilight
Moon
Length of Visible Light
Length of Day
Tomorrow will be .
, % of the Moon is Illuminated

Today's Extremes

State Highs State Lows

Community

WunderPhotos

Upload Photos

1,955,752 photos uploaded!

WunderBlog® & News

Nearby

Air Quality

  Air Quality AQ Index Pollutant
Not available.

Snow Depth

Station Depth Elevation

Earthquake Activity

City Distance Mag. Time & Date
Minimum magnitude displayed is 2.5.

Coastal Water Temperatures

Place Temperature

Stations

Nearby Weather Stations

Station Location Temp. Windchill Dew Point Humidity Wind Precip. Elev Updated Type
                   

Watches & Warnings

There are currently no watches in effect.